sensor_id;sensor_type;location;lat;lon;timestamp;temperature;humidity
27266;DHT22;14766;51.380;13.762;2022-09-01T00:02:32;20.10;56.10
27266;DHT22;14766;51.380;13.762;2022-09-01T00:04:59;20.00;56.00
27266;DHT22;14766;51.380;13.762;2022-09-01T00:07:27;20.00;56.10
27266;DHT22;14766;51.380;13.762;2022-09-01T00:09:58;20.00;56.10
27266;DHT22;14766;51.380;13.762;2022-09-01T00:12:27;20.00;56.10
27266;DHT22;14766;51.380;13.762;2022-09-01T00:14:54;20.00;56.20
27266;DHT22;14766;51.380;13.762;2022-09-01T00:17:22;19.90;56.20
27266;DHT22;14766;51.380;13.762;2022-09-01T00:19:52;19.90;56.30
27266;DHT22;14766;51.380;13.762;2022-09-01T00:22:19;19.90;56.30
27266;DHT22;14766;51.380;13.762;2022-09-01T00:24:47;19.90;56.40
27266;DHT22;14766;51.380;13.762;2022-09-01T00:27:16;19.80;56.40
27266;DHT22;14766;51.380;13.762;2022-09-01T00:29:43;19.80;56.50
27266;DHT22;14766;51.380;13.762;2022-09-01T00:32:10;19.80;56.50
27266;DHT22;14766;51.380;13.762;2022-09-01T00:34:38;19.80;56.60
27266;DHT22;14766;51.380;13.762;2022-09-01T00:37:06;19.80;56.60
27266;DHT22;14766;51.380;13.762;2022-09-01T00:39:34;19.80;56.70
27266;DHT22;14766;51.380;13.762;2022-09-01T00:42:01;19.80;56.70
27266;DHT22;14766;51.380;13.762;2022-09-01T00:44:28;19.80;56.80
27266;DHT22;14766;51.380;13.762;2022-09-01T00:46:58;19.80;56.80
27266;DHT22;14766;51.380;13.762;2022-09-01T00:49:38;19.80;56.80
27266;DHT22;14766;51.380;13.762;2022-09-01T00:52:14;19.70;56.80
27266;DHT22;14766;51.380;13.762;2022-09-01T00:54:48;19.70;56.80
27266;DHT22;14766;51.380;13.762;2022-09-01T00:57:16;19.70;57.00
27266;DHT22;14766;51.380;13.762;2022-09-01T00:59:55;19.70;56.90
27266;DHT22;14766;51.380;13.762;2022-09-01T01:02:23;19.70;56.90
27266;DHT22;14766;51.380;13.762;2022-09-01T01:04:51;19.80;57.00
27266;DHT22;14766;51.380;13.762;2022-09-01T01:07:20;19.80;57.00
27266;DHT22;14766;51.380;13.762;2022-09-01T01:09:49;19.80;57.00
27266;DHT22;14766;51.380;13.762;2022-09-01T01:12:19;19.70;57.00
27266;DHT22;14766;51.380;13.762;2022-09-01T01:14:48;19.70;57.00
27266;DHT22;14766;51.380;13.762;2022-09-01T01:17:20;19.70;57.00
27266;DHT22;14766;51.380;13.762;2022-09-01T01:19:53;19.70;57.00
27266;DHT22;14766;51.380;13.762;2022-09-01T01:25:39;19.70;57.10
27266;DHT22;14766;51.380;13.762;2022-09-01T01:30:46;19.70;57.20
27266;DHT22;14766;51.380;13.762;2022-09-01T01:33:26;19.70;57.20
27266;DHT22;14766;51.380;13.762;2022-09-01T01:35:55;19.70;57.20
27266;DHT22;14766;51.380;13.762;2022-09-01T01:38:26;19.70;57.20
27266;DHT22;14766;51.380;13.762;2022-09-01T01:40:55;19.70;57.30
27266;DHT22;14766;51.380;13.762;2022-09-01T01:43:23;19.70;57.30
27266;DHT22;14766;51.380;13.762;2022-09-01T01:45:54;19.70;57.40
27266;DHT22;14766;51.380;13.762;2022-09-01T01:48:30;19.70;57.30
27266;DHT22;14766;51.380;13.762;2022-09-01T01:51:01;19.70;57.40
27266;DHT22;14766;51.380;13.762;2022-09-01T01:53:32;19.70;58.00
27266;DHT22;14766;51.380;13.762;2022-09-01T01:56:00;19.70;57.20
27266;DHT22;14766;51.380;13.762;2022-09-01T01:58:32;19.60;57.10
27266;DHT22;14766;51.380;13.762;2022-09-01T02:01:07;19.60;57.10
27266;DHT22;14766;51.380;13.762;2022-09-01T02:03:37;19.60;57.00
27266;DHT22;14766;51.380;13.762;2022-09-01T02:06:07;19.60;57.00
27266;DHT22;14766;51.380;13.762;2022-09-01T02:08:37;19.60;57.00
27266;DHT22;14766;51.380;13.762;2022-09-01T02:11:06;19.60;57.00
27266;DHT22;14766;51.380;13.762;2022-09-01T02:13:33;19.60;57.00
27266;DHT22;14766;51.380;13.762;2022-09-01T02:16:05;19.60;56.90
27266;DHT22;14766;51.380;13.762;2022-09-01T02:18:44;19.60;57.00
27266;DHT22;14766;51.380;13.762;2022-09-01T02:21:15;19.50;57.00
27266;DHT22;14766;51.380;13.762;2022-09-01T02:23:52;19.50;57.10
27266;DHT22;14766;51.380;13.762;2022-09-01T02:26:38;19.50;57.20
27266;DHT22;14766;51.380;13.762;2022-09-01T02:29:09;19.50;57.30
27266;DHT22;14766;51.380;13.762;2022-09-01T02:31:46;19.40;57.30
27266;DHT22;14766;51.380;13.762;2022-09-01T02:34:13;19.40;57.40
27266;DHT22;14766;51.380;13.762;2022-09-01T02:36:44;19.40;57.30
27266;DHT22;14766;51.380;13.762;2022-09-01T02:39:20;19.40;57.40
27266;DHT22;14766;51.380;13.762;2022-09-01T02:41:49;19.40;57.50
27266;DHT22;14766;51.380;13.762;2022-09-01T02:44:22;19.40;57.70
27266;DHT22;14766;51.380;13.762;2022-09-01T02:46:50;19.40;57.70
27266;DHT22;14766;51.380;13.762;2022-09-01T02:49:22;19.40;57.70
27266;DHT22;14766;51.380;13.762;2022-09-01T02:51:57;19.40;57.70
27266;DHT22;14766;51.380;13.762;2022-09-01T02:54:31;19.40;57.70
27266;DHT22;14766;51.380;13.762;2022-09-01T02:56:59;19.40;57.70
27266;DHT22;14766;51.380;13.762;2022-09-01T02:59:27;19.40;57.70
27266;DHT22;14766;51.380;13.762;2022-09-01T03:01:59;19.40;57.80
27266;DHT22;14766;51.380;13.762;2022-09-01T03:04:26;19.40;57.80
27266;DHT22;14766;51.380;13.762;2022-09-01T03:06:56;19.40;57.80
27266;DHT22;14766;51.380;13.762;2022-09-01T03:09:25;19.40;57.80
27266;DHT22;14766;51.380;13.762;2022-09-01T03:11:53;19.40;57.80
27266;DHT22;14766;51.380;13.762;2022-09-01T03:14:23;19.40;57.80
27266;DHT22;14766;51.380;13.762;2022-09-01T03:16:51;19.40;57.90
27266;DHT22;14766;51.380;13.762;2022-09-01T03:19:18;19.40;57.90
27266;DHT22;14766;51.380;13.762;2022-09-01T03:21:46;19.40;57.90
27266;DHT22;14766;51.380;13.762;2022-09-01T03:24:20;19.40;58.00
27266;DHT22;14766;51.380;13.762;2022-09-01T03:26:50;19.40;57.80
27266;DHT22;14766;51.380;13.762;2022-09-01T03:29:19;19.40;57.80
27266;DHT22;14766;51.380;13.762;2022-09-01T03:31:47;19.40;57.70
27266;DHT22;14766;51.380;13.762;2022-09-01T03:34:15;19.30;57.80
27266;DHT22;14766;51.380;13.762;2022-09-01T03:36:49;19.40;57.80
27266;DHT22;14766;51.380;13.762;2022-09-01T03:39:24;19.40;57.80
27266;DHT22;14766;51.380;13.762;2022-09-01T03:41:52;19.40;57.90
27266;DHT22;14766;51.380;13.762;2022-09-01T03:44:21;19.30;57.90
27266;DHT22;14766;51.380;13.762;2022-09-01T03:46:48;19.30;57.90
27266;DHT22;14766;51.380;13.762;2022-09-01T03:49:15;19.30;57.80
27266;DHT22;14766;51.380;13.762;2022-09-01T03:51:51;19.30;57.90
27266;DHT22;14766;51.380;13.762;2022-09-01T03:54:21;19.30;57.80
27266;DHT22;14766;51.380;13.762;2022-09-01T03:56:51;19.30;57.70
27266;DHT22;14766;51.380;13.762;2022-09-01T03:59:19;19.30;57.80
27266;DHT22;14766;51.380;13.762;2022-09-01T04:01:49;19.30;57.60
27266;DHT22;14766;51.380;13.762;2022-09-01T04:04:17;19.30;57.60
27266;DHT22;14766;51.380;13.762;2022-09-01T04:06:44;19.30;57.60
27266;DHT22;14766;51.380;13.762;2022-09-01T04:09:12;19.40;57.60
27266;DHT22;14766;51.380;13.762;2022-09-01T04:11:43;19.30;57.60
27266;DHT22;14766;51.380;13.762;2022-09-01T04:14:14;19.30;57.70
27266;DHT22;14766;51.380;13.762;2022-09-01T04:16:44;19.30;57.70
27266;DHT22;14766;51.380;13.762;2022-09-01T04:19:34;19.30;57.70
27266;DHT22;14766;51.380;13.762;2022-09-01T04:22:03;19.40;57.70
27266;DHT22;14766;51.380;13.762;2022-09-01T04:24:39;19.40;57.70
27266;DHT22;14766;51.380;13.762;2022-09-01T04:27:13;19.30;57.60
27266;DHT22;14766;51.380;13.762;2022-09-01T04:29:41;19.30;57.70
27266;DHT22;14766;51.380;13.762;2022-09-01T04:32:09;19.40;57.70
27266;DHT22;14766;51.380;13.762;2022-09-01T04:34:48;19.30;57.70
27266;DHT22;14766;51.380;13.762;2022-09-01T04:37:20;19.40;57.70
27266;DHT22;14766;51.380;13.762;2022-09-01T04:39:54;19.40;57.50
27266;DHT22;14766;51.380;13.762;2022-09-01T04:42:25;19.40;57.50
27266;DHT22;14766;51.380;13.762;2022-09-01T04:44:54;19.40;57.50
27266;DHT22;14766;51.380;13.762;2022-09-01T04:47:24;19.40;57.60
27266;DHT22;14766;51.380;13.762;2022-09-01T04:50:05;19.40;57.50
27266;DHT22;14766;51.380;13.762;2022-09-01T04:52:45;19.40;57.40
27266;DHT22;14766;51.380;13.762;2022-09-01T04:55:28;19.40;57.30
27266;DHT22;14766;51.380;13.762;2022-09-01T04:57:58;19.40;57.30
27266;DHT22;14766;51.380;13.762;2022-09-01T05:00:29;19.40;57.40
27266;DHT22;14766;51.380;13.762;2022-09-01T05:03:01;19.40;57.20
27266;DHT22;14766;51.380;13.762;2022-09-01T05:06:15;19.40;57.00
27266;DHT22;14766;51.380;13.762;2022-09-01T05:08:55;19.50;56.90
27266;DHT22;14766;51.380;13.762;2022-09-01T05:11:39;19.50;56.90
27266;DHT22;14766;51.380;13.762;2022-09-01T05:14:18;19.50;56.80
27266;DHT22;14766;51.380;13.762;2022-09-01T05:16:48;19.50;56.90
27266;DHT22;14766;51.380;13.762;2022-09-01T05:19:17;19.50;56.80
27266;DHT22;14766;51.380;13.762;2022-09-01T05:21:48;19.50;56.70
27266;DHT22;14766;51.380;13.762;2022-09-01T05:24:18;19.60;56.70
27266;DHT22;14766;51.380;13.762;2022-09-01T05:26:48;19.50;56.70
27266;DHT22;14766;51.380;13.762;2022-09-01T05:29:17;19.60;56.60
27266;DHT22;14766;51.380;13.762;2022-09-01T05:31:47;19.60;56.50
27266;DHT22;14766;51.380;13.762;2022-09-01T05:34:18;19.60;56.50
27266;DHT22;14766;51.380;13.762;2022-09-01T05:36:54;19.60;56.50
27266;DHT22;14766;51.380;13.762;2022-09-01T05:39:22;19.60;56.30
27266;DHT22;14766;51.380;13.762;2022-09-01T05:41:51;19.70;56.30
27266;DHT22;14766;51.380;13.762;2022-09-01T05:44:21;19.70;56.30
27266;DHT22;14766;51.380;13.762;2022-09-01T05:46:53;19.70;56.20
27266;DHT22;14766;51.380;13.762;2022-09-01T05:49:25;19.70;56.20
27266;DHT22;14766;51.380;13.762;2022-09-01T05:51:52;19.70;56.20
27266;DHT22;14766;51.380;13.762;2022-09-01T05:54:27;19.80;56.30
27266;DHT22;14766;51.380;13.762;2022-09-01T05:56:56;19.80;56.40
27266;DHT22;14766;51.380;13.762;2022-09-01T05:59:45;19.80;56.50
27266;DHT22;14766;51.380;13.762;2022-09-01T06:02:24;19.90;56.60
27266;DHT22;14766;51.380;13.762;2022-09-01T06:04:55;19.90;56.50
27266;DHT22;14766;51.380;13.762;2022-09-01T06:07:29;20.00;56.40
27266;DHT22;14766;51.380;13.762;2022-09-01T06:09:59;20.00;56.40
27266;DHT22;14766;51.380;13.762;2022-09-01T06:12:27;20.00;56.40
27266;DHT22;14766;51.380;13.762;2022-09-01T06:14:56;20.10;57.10
27266;DHT22;14766;51.380;13.762;2022-09-01T06:17:25;20.10;56.40
27266;DHT22;14766;51.380;13.762;2022-09-01T06:19:56;20.10;56.40
27266;DHT22;14766;51.380;13.762;2022-09-01T06:22:27;20.20;56.50
27266;DHT22;14766;51.380;13.762;2022-09-01T06:24:56;20.20;56.50
27266;DHT22;14766;51.380;13.762;2022-09-01T06:27:32;20.30;56.40
27266;DHT22;14766;51.380;13.762;2022-09-01T06:30:00;20.30;56.40
27266;DHT22;14766;51.380;13.762;2022-09-01T06:32:34;20.30;56.40
27266;DHT22;14766;51.380;13.762;2022-09-01T06:35:04;20.40;56.30
27266;DHT22;14766;51.380;13.762;2022-09-01T06:37:38;20.40;56.10
27266;DHT22;14766;51.380;13.762;2022-09-01T06:40:09;20.50;56.10
27266;DHT22;14766;51.380;13.762;2022-09-01T06:42:44;20.50;56.00
27266;DHT22;14766;51.380;13.762;2022-09-01T06:45:15;20.50;55.90
27266;DHT22;14766;51.380;13.762;2022-09-01T06:47:44;20.60;55.90
27266;DHT22;14766;51.380;13.762;2022-09-01T06:50:14;20.60;55.60
27266;DHT22;14766;51.380;13.762;2022-09-01T06:53:02;20.60;55.60
27266;DHT22;14766;51.380;13.762;2022-09-01T06:55:58;20.60;55.30
27266;DHT22;14766;51.380;13.762;2022-09-01T06:58:25;20.70;55.50
27266;DHT22;14766;51.380;13.762;2022-09-01T07:00:52;20.60;55.20
27266;DHT22;14766;51.380;13.762;2022-09-01T07:03:21;20.70;55.30
27266;DHT22;14766;51.380;13.762;2022-09-01T07:06:14;20.70;55.30
27266;DHT22;14766;51.380;13.762;2022-09-01T07:09:24;20.70;55.10
27266;DHT22;14766;51.380;13.762;2022-09-01T07:12:28;20.70;55.00
27266;DHT22;14766;51.380;13.762;2022-09-01T07:14:56;20.80;55.10
27266;DHT22;14766;51.380;13.762;2022-09-01T07:17:50;20.80;55.00
27266;DHT22;14766;51.380;13.762;2022-09-01T07:20:23;20.80;54.90
27266;DHT22;14766;51.380;13.762;2022-09-01T07:22:54;20.90;54.90
27266;DHT22;14766;51.380;13.762;2022-09-01T07:25:32;20.90;55.00
27266;DHT22;14766;51.380;13.762;2022-09-01T07:28:30;20.90;54.90
27266;DHT22;14766;51.380;13.762;2022-09-01T07:31:06;21.00;54.90
27266;DHT22;14766;51.380;13.762;2022-09-01T07:33:59;21.10;54.70
27266;DHT22;14766;51.380;13.762;2022-09-01T07:36:48;21.10;54.80
27266;DHT22;14766;51.380;13.762;2022-09-01T07:39:37;21.10;54.50
27266;DHT22;14766;51.380;13.762;2022-09-01T07:42:41;21.20;54.50
27266;DHT22;14766;51.380;13.762;2022-09-01T07:45:48;21.20;54.10
27266;DHT22;14766;51.380;13.762;2022-09-01T07:48:36;21.30;54.00
27266;DHT22;14766;51.380;13.762;2022-09-01T07:51:25;21.30;53.80
27266;DHT22;14766;51.380;13.762;2022-09-01T07:54:08;21.30;54.00
27266;DHT22;14766;51.380;13.762;2022-09-01T07:56:40;21.30;54.00
27266;DHT22;14766;51.380;13.762;2022-09-01T07:59:09;21.40;53.80
27266;DHT22;14766;51.380;13.762;2022-09-01T08:02:13;21.40;53.90
27266;DHT22;14766;51.380;13.762;2022-09-01T08:04:46;21.50;53.70
27266;DHT22;14766;51.380;13.762;2022-09-01T08:07:16;21.50;53.30
27266;DHT22;14766;51.380;13.762;2022-09-01T08:09:44;21.50;53.40
27266;DHT22;14766;51.380;13.762;2022-09-01T08:12:14;21.60;53.60
27266;DHT22;14766;51.380;13.762;2022-09-01T08:14:48;21.60;53.60
27266;DHT22;14766;51.380;13.762;2022-09-01T08:17:40;21.70;53.60
27266;DHT22;14766;51.380;13.762;2022-09-01T08:20:25;21.80;53.60
27266;DHT22;14766;51.380;13.762;2022-09-01T08:22:58;21.90;53.60
27266;DHT22;14766;51.380;13.762;2022-09-01T08:25:31;22.00;53.50
27266;DHT22;14766;51.380;13.762;2022-09-01T08:28:00;22.10;53.40
27266;DHT22;14766;51.380;13.762;2022-09-01T08:30:29;22.20;53.20
27266;DHT22;14766;51.380;13.762;2022-09-01T08:33:00;22.30;52.90
27266;DHT22;14766;51.380;13.762;2022-09-01T08:35:47;22.40;52.50
27266;DHT22;14766;51.380;13.762;2022-09-01T08:38:16;22.50;52.40
27266;DHT22;14766;51.380;13.762;2022-09-01T08:40:50;22.60;52.40
27266;DHT22;14766;51.380;13.762;2022-09-01T08:46:27;22.80;52.00
27266;DHT22;14766;51.380;13.762;2022-09-01T08:48:58;22.90;51.80
27266;DHT22;14766;51.380;13.762;2022-09-01T08:54:44;23.10;51.60
27266;DHT22;14766;51.380;13.762;2022-09-01T08:57:23;23.20;51.50
27266;DHT22;14766;51.380;13.762;2022-09-01T09:00:14;23.30;51.60
27266;DHT22;14766;51.380;13.762;2022-09-01T09:05:38;23.60;50.70
27266;DHT22;14766;51.380;13.762;2022-09-01T09:08:24;23.70;50.50
27266;DHT22;14766;51.380;13.762;2022-09-01T09:11:00;23.80;50.20
27266;DHT22;14766;51.380;13.762;2022-09-01T09:16:42;23.90;49.30
27266;DHT22;14766;51.380;13.762;2022-09-01T09:21:48;24.00;49.20
27266;DHT22;14766;51.380;13.762;2022-09-01T09:25:20;24.10;49.30
27266;DHT22;14766;51.380;13.762;2022-09-01T09:27:30;24.10;48.90
27266;DHT22;14766;51.380;13.762;2022-09-01T09:30:05;24.20;49.50
27266;DHT22;14766;51.380;13.762;2022-09-01T09:32:51;24.40;50.00
27266;DHT22;14766;51.380;13.762;2022-09-01T09:35:45;24.60;49.20
27266;DHT22;14766;51.380;13.762;2022-09-01T09:38:15;24.90;47.90
27266;DHT22;14766;51.380;13.762;2022-09-01T09:49:31;26.00;47.00
27266;DHT22;14766;51.380;13.762;2022-09-01T09:54:36;26.70;44.30
27266;DHT22;14766;51.380;13.762;2022-09-01T10:02:34;27.60;44.10
27266;DHT22;14766;51.380;13.762;2022-09-01T10:05:27;28.00;44.20
27266;DHT22;14766;51.380;13.762;2022-09-01T10:07:56;28.40;41.90
27266;DHT22;14766;51.380;13.762;2022-09-01T10:10:39;28.60;42.30
27266;DHT22;14766;51.380;13.762;2022-09-01T10:13:11;28.90;41.00
27266;DHT22;14766;51.380;13.762;2022-09-01T10:15:45;29.20;40.80
27266;DHT22;14766;51.380;13.762;2022-09-01T10:18:22;29.50;39.80
27266;DHT22;14766;51.380;13.762;2022-09-01T10:21:02;29.70;39.00
27266;DHT22;14766;51.380;13.762;2022-09-01T10:23:32;29.80;38.00
27266;DHT22;14766;51.380;13.762;2022-09-01T10:31:27;30.20;37.10
27266;DHT22;14766;51.380;13.762;2022-09-01T10:34:01;30.40;36.10
27266;DHT22;14766;51.380;13.762;2022-09-01T10:36:33;30.40;36.00
27266;DHT22;14766;51.380;13.762;2022-09-01T10:39:02;30.30;35.60
27266;DHT22;14766;51.380;13.762;2022-09-01T10:44:35;29.80;34.80
27266;DHT22;14766;51.380;13.762;2022-09-01T10:47:25;29.50;35.00
27266;DHT22;14766;51.380;13.762;2022-09-01T10:55:16;28.50;35.90
27266;DHT22;14766;51.380;13.762;2022-09-01T10:58:28;28.20;36.60
27266;DHT22;14766;51.380;13.762;2022-09-01T11:04:23;27.70;37.60
27266;DHT22;14766;51.380;13.762;2022-09-01T11:10:23;27.30;38.30
27266;DHT22;14766;51.380;13.762;2022-09-01T11:13:29;27.30;38.70
27266;DHT22;14766;51.380;13.762;2022-09-01T11:32:56;27.50;37.40
27266;DHT22;14766;51.380;13.762;2022-09-01T11:35:26;27.40;37.30
27266;DHT22;14766;51.380;13.762;2022-09-01T11:38:01;27.20;37.50
27266;DHT22;14766;51.380;13.762;2022-09-01T11:40:32;27.00;37.60
27266;DHT22;14766;51.380;13.762;2022-09-01T11:43:04;26.80;37.80
27266;DHT22;14766;51.380;13.762;2022-09-01T11:48:34;26.50;38.40
27266;DHT22;14766;51.380;13.762;2022-09-01T11:51:03;26.40;38.70
27266;DHT22;14766;51.380;13.762;2022-09-01T11:53:31;26.30;39.00
27266;DHT22;14766;51.380;13.762;2022-09-01T11:56:19;26.20;39.30
27266;DHT22;14766;51.380;13.762;2022-09-01T11:58:50;26.10;39.40
27266;DHT22;14766;51.380;13.762;2022-09-01T12:01:21;26.10;39.40
27266;DHT22;14766;51.380;13.762;2022-09-01T12:03:50;26.20;39.60
27266;DHT22;14766;51.380;13.762;2022-09-01T12:06:23;26.30;39.30
27266;DHT22;14766;51.380;13.762;2022-09-01T12:08:56;26.40;38.20
27266;DHT22;14766;51.380;13.762;2022-09-01T12:11:32;26.50;37.10
27266;DHT22;14766;51.380;13.762;2022-09-01T12:14:08;26.50;36.80
27266;DHT22;14766;51.380;13.762;2022-09-01T12:16:39;26.50;36.60
27266;DHT22;14766;51.380;13.762;2022-09-01T12:19:22;26.50;36.90
27266;DHT22;14766;51.380;13.762;2022-09-01T12:22:06;26.40;36.20
27266;DHT22;14766;51.380;13.762;2022-09-01T12:24:45;26.30;36.80
27266;DHT22;14766;51.380;13.762;2022-09-01T12:27:14;26.20;37.40
27266;DHT22;14766;51.380;13.762;2022-09-01T12:29:43;26.10;37.80
27266;DHT22;14766;51.380;13.762;2022-09-01T12:32:18;26.00;38.30
27266;DHT22;14766;51.380;13.762;2022-09-01T12:34:58;26.00;38.70
27266;DHT22;14766;51.380;13.762;2022-09-01T12:37:37;25.90;38.90
27266;DHT22;14766;51.380;13.762;2022-09-01T12:40:30;25.80;39.30
27266;DHT22;14766;51.380;13.762;2022-09-01T12:42:57;25.70;39.70
27266;DHT22;14766;51.380;13.762;2022-09-01T12:45:46;25.70;40.00
27266;DHT22;14766;51.380;13.762;2022-09-01T12:48:36;25.60;40.30
27266;DHT22;14766;51.380;13.762;2022-09-01T12:51:23;25.50;40.30
27266;DHT22;14766;51.380;13.762;2022-09-01T12:54:00;25.40;40.60
27266;DHT22;14766;51.380;13.762;2022-09-01T12:56:36;25.30;40.70
27266;DHT22;14766;51.380;13.762;2022-09-01T12:59:11;25.30;41.20
27266;DHT22;14766;51.380;13.762;2022-09-01T13:01:43;25.20;41.30
27266;DHT22;14766;51.380;13.762;2022-09-01T13:06:40;25.10;41.80
27266;DHT22;14766;51.380;13.762;2022-09-01T13:09:08;25.10;41.80
27266;DHT22;14766;51.380;13.762;2022-09-01T13:11:36;25.00;41.80
27266;DHT22;14766;51.380;13.762;2022-09-01T13:14:24;25.00;41.80
27266;DHT22;14766;51.380;13.762;2022-09-01T13:16:51;24.90;41.80
27266;DHT22;14766;51.380;13.762;2022-09-01T13:19:18;24.90;41.90
27266;DHT22;14766;51.380;13.762;2022-09-01T13:21:53;24.80;42.10
27266;DHT22;14766;51.380;13.762;2022-09-01T13:24:20;24.80;42.30
27266;DHT22;14766;51.380;13.762;2022-09-01T13:26:56;24.80;42.30
27266;DHT22;14766;51.380;13.762;2022-09-01T13:29:45;24.80;42.20
27266;DHT22;14766;51.380;13.762;2022-09-01T13:32:13;24.80;42.20
27266;DHT22;14766;51.380;13.762;2022-09-01T13:34:45;24.80;42.50
27266;DHT22;14766;51.380;13.762;2022-09-01T13:37:12;24.80;42.60
27266;DHT22;14766;51.380;13.762;2022-09-01T13:39:39;24.80;42.20
27266;DHT22;14766;51.380;13.762;2022-09-01T13:42:07;24.80;42.10
27266;DHT22;14766;51.380;13.762;2022-09-01T13:44:34;24.80;42.20
27266;DHT22;14766;51.380;13.762;2022-09-01T13:47:01;24.80;42.40
27266;DHT22;14766;51.380;13.762;2022-09-01T13:49:49;24.80;42.50
27266;DHT22;14766;51.380;13.762;2022-09-01T13:52:38;24.80;43.10
27266;DHT22;14766;51.380;13.762;2022-09-01T13:55:08;24.90;42.30
27266;DHT22;14766;51.380;13.762;2022-09-01T13:57:37;24.90;42.30
27266;DHT22;14766;51.380;13.762;2022-09-01T14:00:08;24.90;42.40
27266;DHT22;14766;51.380;13.762;2022-09-01T14:02:42;24.90;42.40
27266;DHT22;14766;51.380;13.762;2022-09-01T14:05:20;24.90;42.30
27266;DHT22;14766;51.380;13.762;2022-09-01T14:07:48;25.00;42.10
27266;DHT22;14766;51.380;13.762;2022-09-01T14:10:16;25.00;42.10
27266;DHT22;14766;51.380;13.762;2022-09-01T14:12:44;25.00;41.90
27266;DHT22;14766;51.380;13.762;2022-09-01T14:15:13;25.00;41.40
27266;DHT22;14766;51.380;13.762;2022-09-01T14:17:50;25.00;39.70
27266;DHT22;14766;51.380;13.762;2022-09-01T14:20:20;25.00;39.50
27266;DHT22;14766;51.380;13.762;2022-09-01T14:22:48;25.00;39.30
27266;DHT22;14766;51.380;13.762;2022-09-01T14:25:17;25.00;39.20
27266;DHT22;14766;51.380;13.762;2022-09-01T14:27:45;24.90;39.00
27266;DHT22;14766;51.380;13.762;2022-09-01T14:30:19;24.90;39.00
27266;DHT22;14766;51.380;13.762;2022-09-01T14:32:47;24.90;39.20
27266;DHT22;14766;51.380;13.762;2022-09-01T14:35:17;24.90;40.20
27266;DHT22;14766;51.380;13.762;2022-09-01T14:37:45;24.90;39.40
27266;DHT22;14766;51.380;13.762;2022-09-01T14:40:15;24.90;39.60
27266;DHT22;14766;51.380;13.762;2022-09-01T14:42:45;24.80;39.80
27266;DHT22;14766;51.380;13.762;2022-09-01T14:45:17;24.80;39.90
27266;DHT22;14766;51.380;13.762;2022-09-01T14:47:47;24.80;40.30
27266;DHT22;14766;51.380;13.762;2022-09-01T14:50:15;24.80;40.40
27266;DHT22;14766;51.380;13.762;2022-09-01T14:52:51;24.80;40.60
27266;DHT22;14766;51.380;13.762;2022-09-01T14:55:24;24.70;40.90
27266;DHT22;14766;51.380;13.762;2022-09-01T14:57:52;24.70;40.90
27266;DHT22;14766;51.380;13.762;2022-09-01T15:00:21;24.70;41.10
27266;DHT22;14766;51.380;13.762;2022-09-01T15:02:52;24.70;41.30
27266;DHT22;14766;51.380;13.762;2022-09-01T15:05:20;24.80;41.40
27266;DHT22;14766;51.380;13.762;2022-09-01T15:07:48;24.70;41.40
27266;DHT22;14766;51.380;13.762;2022-09-01T15:10:17;24.70;41.60
27266;DHT22;14766;51.380;13.762;2022-09-01T15:12:53;24.70;41.70
27266;DHT22;14766;51.380;13.762;2022-09-01T15:15:20;24.70;41.90
27266;DHT22;14766;51.380;13.762;2022-09-01T15:17:48;24.70;41.80
27266;DHT22;14766;51.380;13.762;2022-09-01T15:20:15;24.80;42.70
27266;DHT22;14766;51.380;13.762;2022-09-01T15:23:01;24.80;41.90
27266;DHT22;14766;51.380;13.762;2022-09-01T15:25:28;24.70;41.70
27266;DHT22;14766;51.380;13.762;2022-09-01T15:27:55;24.70;41.80
27266;DHT22;14766;51.380;13.762;2022-09-01T15:30:22;24.70;41.80
27266;DHT22;14766;51.380;13.762;2022-09-01T15:32:51;24.70;41.90
27266;DHT22;14766;51.380;13.762;2022-09-01T15:35:19;24.70;42.00
27266;DHT22;14766;51.380;13.762;2022-09-01T15:37:47;24.70;41.80
27266;DHT22;14766;51.380;13.762;2022-09-01T15:40:16;24.60;41.30
27266;DHT22;14766;51.380;13.762;2022-09-01T15:42:43;24.60;41.60
27266;DHT22;14766;51.380;13.762;2022-09-01T15:45:14;24.60;41.30
27266;DHT22;14766;51.380;13.762;2022-09-01T15:47:41;24.60;41.40
27266;DHT22;14766;51.380;13.762;2022-09-01T15:50:13;24.60;41.50
27266;DHT22;14766;51.380;13.762;2022-09-01T15:52:57;24.50;42.20
27266;DHT22;14766;51.380;13.762;2022-09-01T15:55:28;24.50;41.30
27266;DHT22;14766;51.380;13.762;2022-09-01T15:57:57;24.50;41.40
27266;DHT22;14766;51.380;13.762;2022-09-01T16:00:26;24.50;41.30
27266;DHT22;14766;51.380;13.762;2022-09-01T16:02:53;24.40;41.20
27266;DHT22;14766;51.380;13.762;2022-09-01T16:05:23;24.40;41.20
27266;DHT22;14766;51.380;13.762;2022-09-01T16:07:52;24.40;41.40
27266;DHT22;14766;51.380;13.762;2022-09-01T16:10:20;24.40;41.40
27266;DHT22;14766;51.380;13.762;2022-09-01T16:12:47;24.30;41.60
27266;DHT22;14766;51.380;13.762;2022-09-01T16:15:20;24.30;41.80
27266;DHT22;14766;51.380;13.762;2022-09-01T16:23:19;24.20;41.90
27266;DHT22;14766;51.380;13.762;2022-09-01T16:25:47;24.20;41.90
27266;DHT22;14766;51.380;13.762;2022-09-01T16:28:30;24.10;41.80
27266;DHT22;14766;51.380;13.762;2022-09-01T16:31:03;24.10;41.80
27266;DHT22;14766;51.380;13.762;2022-09-01T16:33:32;24.10;41.80
27266;DHT22;14766;51.380;13.762;2022-09-01T16:38:49;24.00;41.90
27266;DHT22;14766;51.380;13.762;2022-09-01T16:44:30;24.00;42.10
27266;DHT22;14766;51.380;13.762;2022-09-01T16:47:09;24.00;42.10
27266;DHT22;14766;51.380;13.762;2022-09-01T16:52:26;23.90;41.90
27266;DHT22;14766;51.380;13.762;2022-09-01T17:00:09;23.90;42.00
27266;DHT22;14766;51.380;13.762;2022-09-01T17:02:55;23.90;42.10
27266;DHT22;14766;51.380;13.762;2022-09-01T17:05:39;23.90;42.00
27266;DHT22;14766;51.380;13.762;2022-09-01T17:08:25;23.90;42.10
27266;DHT22;14766;51.380;13.762;2022-09-01T17:11:10;23.80;42.20
27266;DHT22;14766;51.380;13.762;2022-09-01T17:13:49;23.80;42.30
27266;DHT22;14766;51.380;13.762;2022-09-01T17:16:32;23.80;42.30
27266;DHT22;14766;51.380;13.762;2022-09-01T17:19:08;23.80;42.50
27266;DHT22;14766;51.380;13.762;2022-09-01T17:21:47;23.80;42.70
27266;DHT22;14766;51.380;13.762;2022-09-01T17:24:37;23.80;43.00
27266;DHT22;14766;51.380;13.762;2022-09-01T17:27:11;23.70;42.70
27266;DHT22;14766;51.380;13.762;2022-09-01T17:29:46;23.70;43.00
27266;DHT22;14766;51.380;13.762;2022-09-01T17:32:58;23.70;43.50
27266;DHT22;14766;51.380;13.762;2022-09-01T17:35:51;23.70;44.10
27266;DHT22;14766;51.380;13.762;2022-09-01T17:46:50;23.60;45.80